Time;durP1;ratioP1;P1;durP2;ratioP2;P2;SDS_P1;SDS_P2;PMS_P1;PMS_P2;Temp;Humidity;BMP_temperature;BMP_pressure;BME280_temperature;BME280_humidity;BME280_pressure;Samples;Min_cycle;Max_cycle;Signal;HPM_P1;HPM_P2
2023/10/09 00:00:35;;;;;;;16.53;6.47;;;;;;;14.62;100.00;100901.34;5015529;28;20219;-81
2023/10/09 00:03:00;;;;;;;10.00;5.73;;;;;;;14.63;100.00;100891.78;5016176;28;20175;-78
2023/10/09 00:05:47;;;;;;;12.50;5.40;;;;;;;14.63;100.00;100895.25;5018054;28;20250;-80
2023/10/09 00:08:19;;;;;;;14.80;6.50;;;;;;;14.63;100.00;100887.44;5023380;28;20175;-80
2023/10/09 00:10:54;;;;;;;11.43;5.33;;;;;;;14.64;100.00;100885.69;5011363;28;20212;-81
2023/10/09 00:13:32;;;;;;;9.87;5.07;;;;;;;14.64;100.00;100893.50;5017254;28;20207;-83
2023/10/09 00:16:08;;;;;;;9.20;4.07;;;;;;;14.64;100.00;100885.69;5017315;28;20325;-82
2023/10/09 00:18:34;;;;;;;12.43;5.53;;;;;;;14.64;100.00;100896.13;5020948;28;20194;-81
2023/10/09 00:21:12;;;;;;;11.87;5.10;;;;;;;14.63;100.00;100889.19;5011051;28;20234;-82
2023/10/09 00:23:40;;;;;;;8.63;4.93;;;;;;;14.62;100.00;100888.31;5023403;28;20987;-83
2023/10/09 00:26:12;;;;;;;9.23;5.30;;;;;;;14.61;100.00;100886.59;5014598;28;20191;-81
2023/10/09 00:28:43;;;;;;;13.80;5.43;;;;;;;14.61;100.00;100888.34;5018284;28;20589;-81
2023/10/09 00:31:14;;;;;;;13.73;5.40;;;;;;;14.59;100.00;100885.78;5013094;28;20212;-80
2023/10/09 00:33:40;;;;;;;9.70;4.67;;;;;;;14.59;100.00;100882.28;5014284;28;20292;-82
2023/10/09 00:36:18;;;;;;;10.63;4.13;;;;;;;14.57;100.00;100878.84;5019437;28;20248;-82
2023/10/09 00:38:50;;;;;;;8.87;5.30;;;;;;;14.55;100.00;100881.50;5010439;28;20194;-81
2023/10/09 00:41:20;;;;;;;12.27;5.60;;;;;;;14.54;100.00;100876.28;5012414;28;20265;-81
2023/10/09 00:43:45;;;;;;;11.57;4.73;;;;;;;14.52;100.00;100880.69;5022644;28;20194;-80
2023/10/09 00:48:49;;;;;;;11.77;4.50;;;;;;;14.47;100.00;100883.34;5018086;28;20191;-82
2023/10/09 00:51:19;;;;;;;12.37;5.40;;;;;;;14.45;100.00;100880.78;5021363;28;20234;-79
2023/10/09 00:53:50;;;;;;;9.97;5.03;;;;;;;14.42;100.00;100875.59;5021694;28;20218;-80
2023/10/09 00:56:57;;;;;;;10.83;4.77;;;;;;;14.40;100.00;100868.72;5021557;28;20319;-80
2023/10/09 00:59:14;;;;;;;10.50;4.87;;;;;;;14.37;100.00;100863.53;5024649;28;20279;-78
2023/10/09 01:01:45;;;;;;;12.83;5.03;;;;;;;14.36;100.00;100859.22;5022352;28;20207;-80
2023/10/09 01:04:11;;;;;;;10.10;4.60;;;;;;;14.33;100.00;100860.97;5019857;28;20918;-83
2023/10/09 01:06:43;;;;;;;10.93;4.70;;;;;;;14.31;100.00;100857.53;5017656;28;20552;-80
2023/10/09 01:09:13;;;;;;;13.00;5.20;;;;;;;14.30;100.00;100853.22;5020054;28;20183;-81
2023/10/09 01:11:51;;;;;;;10.43;5.10;;;;;;;14.28;100.00;100835.91;5028999;28;20270;-83
2023/10/09 01:14:16;;;;;;;9.80;5.00;;;;;;;14.27;100.00;100844.59;5042195;28;20277;-82
2023/10/09 01:16:42;;;;;;;11.07;5.23;;;;;;;14.26;100.00;100843.75;5037511;28;20214;-81
2023/10/09 01:19:23;;;;;;;11.53;5.03;;;;;;;14.26;100.00;100840.28;5023099;28;20191;-80
2023/10/09 01:21:50;;;;;;;8.33;4.43;;;;;;;14.26;100.00;100840.28;5020389;28;20304;-81
2023/10/09 01:24:16;;;;;;;8.97;4.90;;;;;;;14.26;100.00;100838.53;5021361;28;20191;-81
2023/10/09 01:26:49;;;;;;;9.97;5.47;;;;;;;14.26;100.00;100838.53;5010532;28;21024;-81
2023/10/09 01:29:19;;;;;;;9.67;5.37;;;;;;;14.27;100.00;100839.41;5011706;28;20187;-81
2023/10/09 01:31:54;;;;;;;9.93;5.03;;;;;;;14.29;100.00;100845.44;5020643;28;20299;-78
2023/10/09 01:37:05;;;;;;;14.63;5.60;;;;;;;14.29;100.00;100838.47;5016793;28;20605;-82
2023/10/09 01:39:30;;;;;;;11.63;5.57;;;;;;;14.30;100.00;100837.59;5017320;28;20634;-80
2023/10/09 01:42:05;;;;;;;12.37;5.93;;;;;;;14.31;100.00;100838.47;5014692;28;20306;-82
2023/10/09 01:44:34;;;;;;;14.77;5.77;;;;;;;14.30;100.00;100835.00;5020993;28;20272;-80
2023/10/09 01:47:13;;;;;;;12.17;5.70;;;;;;;14.29;100.00;100829.81;5019545;28;20183;-80
2023/10/09 01:49:43;;;;;;;13.83;6.63;;;;;;;14.29;100.00;100837.63;5010802;28;20194;-82
2023/10/09 01:52:15;;;;;;;11.70;5.33;;;;;;;14.27;100.00;100831.59;5017245;28;20202;-82
2023/10/09 01:54:41;;;;;;;12.33;6.23;;;;;;;14.26;100.00;100832.47;5013782;28;20907;-79
2023/10/09 01:57:29;;;;;;;14.13;6.57;;;;;;;14.25;100.00;100822.94;5018980;28;20237;-78
2023/10/09 01:59:56;;;;;;;12.10;6.17;;;;;;;14.25;100.00;100821.22;5016361;28;20183;-80
2023/10/09 02:02:31;;;;;;;18.97;7.27;;;;;;;14.29;100.00;100835.88;5012269;28;20223;-80
2023/10/09 02:07:40;;;;;;;13.43;5.60;;;;;;;14.27;100.00;100824.66;5017919;28;20187;-82
2023/10/09 02:10:11;;;;;;;13.37;6.23;;;;;;;14.29;100.00;100827.22;5018175;28;20186;-82
2023/10/09 02:12:37;;;;;;;12.33;5.73;;;;;;;14.28;100.00;100822.91;5012490;28;20297;-81
2023/10/09 02:15:15;;;;;;;11.30;5.90;;;;;;;14.29;100.00;100825.47;5014067;28;20274;-82
2023/10/09 02:17:51;;;;;;;10.83;5.70;;;;;;;14.29;100.00;100830.66;5043620;28;20199;-82
2023/10/09 02:20:19;;;;;;;12.80;5.30;;;;;;;14.29;100.00;100830.66;5017791;28;20188;-80
2023/10/09 02:22:44;;;;;;;18.03;6.13;;;;;;;14.28;100.00;100828.97;5013611;28;20269;-80
2023/10/09 02:25:11;;;;;;;15.60;5.50;;;;;;;14.27;100.00;100823.78;5017415;28;20176;-82
2023/10/09 02:27:53;;;;;;;12.53;6.10;;;;;;;14.28;100.00;100834.19;5024457;28;20201;-81
2023/10/09 02:30:26;;;;;;;12.23;6.07;;;;;;;14.29;100.00;100832.41;5015199;28;20184;-81
2023/10/09 02:32:54;;;;;;;12.03;5.33;;;;;;;14.27;100.00;100828.97;5020194;28;20199;-80
2023/10/09 02:35:31;;;;;;;11.30;5.40;;;;;;;14.27;100.00;100821.16;5049096;28;20187;-81
2023/10/09 02:37:59;;;;;;;12.07;5.50;;;;;;;14.26;100.00;100816.84;5019696;28;20665;-81
2023/10/09 02:40:31;;;;;;;12.13;6.10;;;;;;;14.23;100.00;100817.75;5018154;28;20633;-80
2023/10/09 02:42:58;;;;;;;16.07;6.50;;;;;;;14.22;100.00;100810.84;5017752;28;20174;-82
2023/10/09 02:45:29;;;;;;;12.80;5.80;;;;;;;14.20;100.00;100814.34;5010269;28;20216;-82
2023/10/09 02:47:55;;;;;;;11.87;5.40;;;;;;;14.15;100.00;100806.59;5020067;28;20418;-79
2023/10/09 02:50:22;;;;;;;18.90;6.47;;;;;;;14.12;100.00;100807.50;5011503;28;20602;-80
2023/10/09 02:52:52;;;;;;;16.47;5.77;;;;;;;14.09;100.00;100804.09;5018944;28;20246;-80
2023/10/09 02:55:25;;;;;;;12.20;6.23;;;;;;;14.06;100.00;100804.16;5011944;28;20227;-83
2023/10/09 02:57:56;;;;;;;15.37;5.77;;;;;;;14.02;100.00;100796.38;5016568;28;20217;-78
2023/10/09 03:00:29;;;;;;;10.80;5.80;;;;;;;13.96;100.00;100793.88;5020958;28;20188;-81
2023/10/09 03:02:58;;;;;;;10.87;5.93;;;;;;;13.92;100.00;100802.59;5023141;28;20669;-82
2023/10/09 03:05:29;;;;;;;11.17;5.90;;;;;;;13.91;100.00;100800.03;5020100;28;20665;-82
2023/10/09 03:07:55;;;;;;;15.00;6.47;;;;;;;13.87;100.00;100792.28;5019210;28;20183;-80
2023/10/09 03:10:25;;;;;;;14.77;6.13;;;;;;;13.83;100.00;100795.78;5020113;28;20191;-81
2023/10/09 03:12:53;;;;;;;17.43;6.97;;;;;;;13.81;100.00;100787.16;5018009;28;20199;-81
2023/10/09 03:15:21;;;;;;;16.17;6.70;;;;;;;13.77;100.00;100785.47;5020932;28;20200;-83
2023/10/09 03:17:48;;;;;;;14.27;6.57;;;;;;;13.77;100.00;100782.03;5020240;28;20202;-81
2023/10/09 03:20:14;;;;;;;12.33;5.97;;;;;;;13.74;100.00;100772.53;5044676;28;20193;-82
2023/10/09 03:22:41;;;;;;;9.97;6.03;;;;;;;13.73;100.00;100776.00;5041118;28;20195;-80
2023/10/09 03:25:16;;;;;;;20.63;7.00;;;;;;;13.72;100.00;100777.72;5018138;28;20194;-82
2023/10/09 03:27:46;;;;;;;10.10;5.30;;;;;;;13.71;100.00;100775.16;5017358;28;20188;-81
2023/10/09 03:30:17;;;;;;;18.80;6.40;;;;;;;13.72;100.00;100772.53;5014511;28;20876;-79
2023/10/09 03:32:46;;;;;;;12.97;6.50;;;;;;;13.70;100.00;100771.69;5015047;28;22096;-79
2023/10/09 03:35:16;;;;;;;10.03;5.80;;;;;;;13.70;100.00;100771.69;5015073;28;20829;-78
2023/10/09 03:37:42;;;;;;;20.97;6.97;;;;;;;13.74;100.00;100769.94;5014067;28;20778;-79
2023/10/09 03:40:08;;;;;;;15.27;6.17;;;;;;;13.72;100.00;100771.69;5014128;28;20400;-81
2023/10/09 03:42:36;;;;;;;14.13;5.87;;;;;;;13.72;100.00;100775.13;5012538;28;20226;-82
2023/10/09 03:45:05;;;;;;;11.87;5.77;;;;;;;13.71;100.00;100770.81;5017884;28;20188;-79
2023/10/09 03:47:31;;;;;;;11.80;5.10;;;;;;;13.72;100.00;100777.72;5012858;28;20189;-82
2023/10/09 03:49:57;;;;;;;14.63;5.77;;;;;;;13.71;100.00;100770.81;5014520;28;20256;-80
2023/10/09 03:52:25;;;;;;;12.43;5.47;;;;;;;13.75;100.00;100781.19;5017839;28;20337;-80
2023/10/09 03:54:51;;;;;;;8.93;5.17;;;;;;;13.78;100.00;100778.53;5008729;28;20180;-80
2023/10/09 03:57:19;;;;;;;11.83;5.50;;;;;;;13.81;100.00;100776.75;5012368;28;20184;-80
2023/10/09 03:59:48;;;;;;;15.27;6.57;;;;;;;13.84;100.00;100783.66;5012148;28;20198;-81
2023/10/09 04:02:16;;;;;;;15.93;6.83;;;;;;;13.86;100.00;100774.94;5012406;28;20686;-81
2023/10/09 04:04:46;;;;;;;15.47;6.13;;;;;;;13.86;100.00;100779.28;5017416;28;20202;-81
2023/10/09 04:07:12;;;;;;;10.47;5.23;;;;;;;13.85;100.00;100781.03;5012534;28;20187;-80
2023/10/09 04:09:44;;;;;;;15.00;6.10;;;;;;;13.86;100.00;100780.16;5016279;28;20185;-80
2023/10/09 04:14:35;;;;;;;11.07;5.73;;;;;;;13.85;100.00;100787.97;5019806;28;20246;-81
2023/10/09 04:17:06;;;;;;;9.67;5.37;;;;;;;13.84;100.00;100792.31;5013848;28;20184;-82
2023/10/09 04:19:39;;;;;;;13.17;5.87;;;;;;;13.84;100.00;100786.25;5014619;28;20186;-81
2023/10/09 04:22:09;;;;;;;12.23;5.33;;;;;;;13.80;100.00;100787.19;5013459;28;20208;-81
2023/10/09 04:24:44;;;;;;;9.33;5.17;;;;;;;13.76;100.00;100793.31;5020014;28;20187;-80
2023/10/09 04:27:09;;;;;;;8.73;4.73;;;;;;;13.72;100.00;100801.16;5013240;28;20194;-80
2023/10/09 04:29:38;;;;;;;9.13;5.07;;;;;;;13.70;100.00;100807.25;5018658;28;20195;-81
2023/10/09 04:32:07;;;;;;;9.30;5.27;;;;;;;13.67;100.00;100813.38;5006400;28;20946;-81
2023/10/09 04:34:38;;;;;;;12.77;6.20;;;;;;;13.66;100.00;100810.78;5009707;28;20250;-83
2023/10/09 04:39:47;;;;;;;10.80;5.23;;;;;;;13.63;100.00;100819.47;5018454;28;20199;-81
2023/10/09 04:42:35;;;;;;;10.93;5.33;;;;;;;13.62;100.00;100817.75;5009094;28;20212;-80
2023/10/09 04:47:37;;;;;;;12.53;6.43;;;;;;;13.59;100.00;100822.16;5016569;28;20188;-83
2023/10/09 04:58:09;;;;;;;17.10;6.17;;;;;;;13.48;100.00;100830.94;5016556;28;20183;-81
2023/10/09 05:03:12;;;;;;;8.97;5.23;;;;;;;13.41;100.00;100835.34;5015241;28;20181;-81
2023/10/09 05:08:21;;;;;;;9.30;5.20;;;;;;;13.39;100.00;100825.81;5012881;28;20298;-82
2023/10/09 05:16:15;;;;;;;17.97;6.57;;;;;;;13.32;100.00;100826.75;5014917;28;20278;-81
2023/10/09 05:18:41;;;;;;;16.73;6.17;;;;;;;13.30;100.00;100823.34;5020808;28;21559;-82
2023/10/09 05:29:19;;;;;;;14.90;5.80;;;;;;;13.28;100.00;100823.34;5048942;28;20253;-82
2023/10/09 05:34:33;;;;;;;12.33;5.10;;;;;;;13.26;100.00;100836.38;5031176;28;20205;-83
2023/10/09 05:37:17;;;;;;;9.17;4.60;;;;;;;13.26;100.00;100825.09;5019446;28;20192;-82
2023/10/09 05:40:31;;;;;;;10.60;5.57;;;;;;;13.27;100.00;100827.69;5013136;28;20189;-79
2023/10/09 05:51:41;;;;;;;11.53;5.80;;;;;;;13.26;100.00;100825.97;5017787;28;20221;-84
2023/10/09 05:54:11;;;;;;;12.47;6.20;;;;;;;13.27;100.00;100821.63;5025920;28;20292;-83
2023/10/09 06:04:54;;;;;;;10.53;5.70;;;;;;;13.38;100.00;100830.16;5014328;28;20213;-80
2023/10/09 06:07:23;;;;;;;11.60;5.37;;;;;;;13.41;100.00;100821.50;5021638;28;20269;-81
2023/10/09 06:09:56;;;;;;;13.93;5.10;;;;;;;13.48;100.00;100828.31;5023176;28;20180;-84
2023/10/09 06:12:33;;;;;;;16.73;5.90;;;;;;;13.54;100.00;100829.97;5020488;28;20704;-82
2023/10/09 06:17:51;;;;;;;12.83;5.63;;;;;;;13.68;100.00;100816.81;5021132;28;20207;-84
2023/10/09 06:23:15;;;;;;;9.07;5.30;;;;;;;13.80;100.00;100821.00;5020445;28;20205;-84
2023/10/09 06:26:02;;;;;;;13.90;5.70;;;;;;;13.86;100.00;100824.38;5025708;28;20193;-83
2023/10/09 06:28:33;;;;;;;13.00;5.83;;;;;;;13.94;100.00;100826.88;5024212;28;20758;-82
2023/10/09 06:31:27;;;;;;;13.27;6.10;;;;;;;13.99;100.00;100830.25;5023988;28;20223;-80
2023/10/09 06:33:57;;;;;;;17.00;5.73;;;;;;;14.06;100.00;100828.44;5019792;28;20255;-80
2023/10/09 06:36:31;;;;;;;12.10;5.13;;;;;;;14.14;100.00;100831.78;5023353;28;20182;-81
2023/10/09 06:39:50;;;;;;;12.40;6.07;;;;;;;14.24;100.00;100840.31;5025144;28;20198;-79
2023/10/09 06:41:45;;;;;;;11.43;5.23;;;;;;;14.36;100.00;100848.81;5023393;28;20267;-81
2023/10/09 06:44:51;;;;;;;15.53;5.70;;;;;;;14.46;100.00;100863.38;5031553;28;20178;-83
2023/10/09 06:46:57;;;;;;;12.43;5.27;;;;;;;14.58;100.00;100870.16;5019316;28;20585;-79
2023/10/09 06:49:29;;;;;;;9.57;4.73;;;;;;;14.69;100.00;100867.41;5014738;28;20188;-80
2023/10/09 06:52:13;;;;;;;12.70;4.60;;;;;;;14.79;100.00;100868.97;5015398;28;20212;-79
2023/10/09 06:54:38;;;;;;;16.17;5.53;;;;;;;14.88;100.00;100866.22;5027542;28;20206;-81
2023/10/09 06:57:14;;;;;;;9.97;5.27;;;;;;;14.97;100.00;100862.59;5025738;28;20187;-80
2023/10/09 06:59:43;;;;;;;11.47;4.80;;;;;;;15.04;100.00;100858.97;5024456;28;20255;-81
2023/10/09 07:07:02;;;;;;;12.50;5.23;;;;;;;15.21;100.00;100866.47;5023206;28;20206;-81
2023/10/09 07:09:42;;;;;;;12.77;5.57;;;;;;;15.25;100.00;100856.88;5018381;28;20837;-80
2023/10/09 07:12:14;;;;;;;9.40;4.83;;;;;;;15.31;100.00;100868.91;5015792;28;20212;-80
2023/10/09 07:17:21;;;;;;;13.23;5.30;;;;;;;15.43;100.00;100860.84;5024252;28;20188;-80
2023/10/09 07:22:18;;;;;;;11.67;5.00;;;;;;;15.55;100.00;100859.75;5022086;28;20470;-81
2023/10/09 07:24:43;;;;;;;16.67;5.23;;;;;;;15.61;100.00;100862.22;5015968;28;20183;-80
2023/10/09 07:27:15;;;;;;;12.73;6.00;;;;;;;15.67;100.00;100869.94;5024411;28;20200;-81
2023/10/09 07:29:50;;;;;;;16.27;6.17;;;;;;;15.78;100.00;100882.75;5023064;28;20745;-79
2023/10/09 07:32:22;;;;;;;11.93;4.93;;;;;;;15.83;100.00;100874.81;5019801;28;20207;-81
2023/10/09 07:34:53;;;;;;;8.83;5.27;;;;;;;15.93;100.00;100878.13;5016604;28;20823;-82
2023/10/09 07:37:22;;;;;;;10.90;5.40;;;;;;;16.02;100.00;100887.50;5030531;28;20198;-82
2023/10/09 07:39:58;;;;;;;10.73;4.80;;;;;;;16.09;100.00;100887.34;5033336;28;20558;-80
2023/10/09 07:42:34;;;;;;;15.37;5.03;;;;;;;16.19;100.00;100887.97;5022158;28;20228;-80
2023/10/09 07:45:12;;;;;;;16.07;5.03;;;;;;;16.25;100.00;100887.84;5023301;28;20192;-82
2023/10/09 07:50:22;;;;;;;8.57;4.37;;;;;;;16.43;99.50;100898.75;5015093;28;20736;-79
2023/10/09 07:52:49;;;;;;;10.90;5.27;;;;;;;16.47;99.52;100897.81;5016866;28;20210;-80
2023/10/09 07:55:26;;;;;;;9.60;4.23;;;;;;;16.56;99.46;100894.09;5022465;28;20200;-79
2023/10/09 07:57:53;;;;;;;10.97;5.60;;;;;;;16.66;99.44;100892.97;5017906;28;20237;-80
2023/10/09 08:00:37;;;;;;;12.37;5.80;;;;;;;16.75;98.83;100891.91;5019929;28;20275;-80
2023/10/09 08:03:02;;;;;;;12.33;4.97;;;;;;;16.84;98.81;100896.88;5011059;28;20188;-79
2023/10/09 08:05:33;;;;;;;10.30;5.10;;;;;;;16.96;98.39;100903.59;5019689;28;20253;-80
2023/10/09 08:08:39;;;;;;;10.20;5.20;;;;;;;17.05;97.86;100898.09;5013572;28;20188;-79
2023/10/09 08:13:56;;;;;;;11.47;5.23;;;;;;;17.30;97.25;100896.59;5019148;28;20570;-80
2023/10/09 08:16:24;;;;;;;11.27;5.07;;;;;;;17.34;97.20;100893.84;5016946;28;20666;-81
2023/10/09 08:18:51;;;;;;;12.10;5.00;;;;;;;17.42;96.55;100882.31;5022268;28;20606;-82
2023/10/09 08:21:19;;;;;;;8.63;4.90;;;;;;;17.46;96.47;100884.81;5021672;28;20229;-78
2023/10/09 08:23:48;;;;;;;9.07;5.53;;;;;;;17.51;96.49;100869.84;5023243;28;20190;-80
2023/10/09 08:26:14;;;;;;;11.80;5.20;;;;;;;17.49;96.62;100874.25;5024538;28;20183;-80
2023/10/09 08:28:45;;;;;;;11.90;5.20;;;;;;;17.59;96.61;100876.59;5015232;28;20281;-82
2023/10/09 08:33:59;;;;;;;15.47;6.67;;;;;;;17.40;96.42;100882.34;5021548;28;20273;-79
2023/10/09 08:36:28;;;;;;;15.50;5.77;;;;;;;17.53;96.35;100885.50;5020449;28;20778;-81
2023/10/09 08:38:58;;;;;;;15.40;6.13;;;;;;;17.51;96.67;100882.94;5019665;28;20277;-80
2023/10/09 08:41:25;;;;;;;14.10;5.63;;;;;;;17.67;96.37;100882.50;5014698;28;20241;-79
2023/10/09 08:43:53;;;;;;;11.67;5.43;;;;;;;17.87;95.99;100888.88;5011230;28;20180;-81
2023/10/09 08:46:29;;;;;;;13.40;5.53;;;;;;;18.05;95.58;100890.97;5013297;28;20191;-80
2023/10/09 08:48:59;;;;;;;12.83;5.23;;;;;;;18.18;95.05;100890.59;5017158;28;20572;-78
2023/10/09 08:51:25;;;;;;;12.07;5.17;;;;;;;18.25;95.14;100892.97;5037132;28;20256;-79
2023/10/09 08:53:52;;;;;;;12.33;4.90;;;;;;;18.36;95.07;100894.44;5013291;28;20226;-81
2023/10/09 08:56:24;;;;;;;13.30;5.30;;;;;;;18.46;94.80;100890.59;5014259;28;20311;-80
2023/10/09 08:58:51;;;;;;;15.07;5.03;;;;;;;18.54;94.50;100892.97;5018041;28;20322;-81
2023/10/09 09:01:21;;;;;;;9.00;5.30;;;;;;;18.68;94.17;100897.75;5017802;28;20298;-79
2023/10/09 09:03:47;;;;;;;8.83;4.23;;;;;;;18.80;94.04;100904.34;5022046;28;20266;-81
2023/10/09 09:06:14;;;;;;;13.80;4.70;;;;;;;18.92;93.85;100903.91;5020810;28;20183;-80
2023/10/09 09:08:40;;;;;;;11.77;5.47;;;;;;;18.91;93.35;100911.84;5021930;28;20540;-80
2023/10/09 09:11:13;;;;;;;10.10;5.57;;;;;;;19.05;92.65;100914.91;5027187;28;20342;-79
2023/10/09 09:13:48;;;;;;;13.13;4.93;;;;;;;19.24;92.17;100909.84;5025137;28;20199;-79
2023/10/09 09:16:22;;;;;;;13.53;5.23;;;;;;;19.31;91.42;100910.50;5027070;28;20183;-80
2023/10/09 09:19:05;;;;;;;10.03;4.40;;;;;;;19.53;91.21;100910.56;5017868;28;20181;-79
2023/10/09 09:21:39;;;;;;;11.47;4.30;;;;;;;19.77;90.33;100914.06;5019196;28;20215;-81
2023/10/09 09:26:46;;;;;;;10.43;4.63;;;;;;;20.21;88.71;100894.91;5016561;28;20254;-80
2023/10/09 09:29:17;;;;;;;10.50;4.67;;;;;;;20.45;87.96;100896.63;5023593;28;20924;-80
2023/10/09 09:32:19;;;;;;;17.93;5.13;;;;;;;20.38;88.20;100891.59;5040528;28;20201;-81
2023/10/09 09:34:48;;;;;;;12.50;4.77;;;;;;;20.61;87.39;100900.34;5021327;28;20301;-80
2023/10/09 09:37:28;;;;;;;14.40;4.37;;;;;;;20.72;87.44;100892.00;5022283;28;20179;-81
2023/10/09 09:39:55;;;;;;;11.67;4.50;;;;;;;20.77;87.41;100899.75;5042153;28;20207;-79
2023/10/09 09:42:27;;;;;;;11.93;4.10;;;;;;;21.00;86.99;100902.22;5012056;28;20391;-82
2023/10/09 09:44:53;;;;;;;9.90;4.40;;;;;;;21.16;86.33;100897.19;5017576;28;20756;-81
2023/10/09 09:47:27;;;;;;;11.50;4.67;;;;;;;21.12;87.20;100899.97;5032773;28;20203;-80
2023/10/09 09:50:00;;;;;;;13.37;4.40;;;;;;;21.35;86.85;100891.06;5042767;28;20179;-79
2023/10/09 09:52:29;;;;;;;11.97;4.77;;;;;;;21.13;87.56;100894.69;5022345;28;20290;-81
2023/10/09 09:54:55;;;;;;;11.93;4.77;;;;;;;21.38;86.95;100890.09;5020070;28;20814;-80
2023/10/09 09:57:27;;;;;;;9.60;4.27;;;;;;;21.57;86.50;100896.22;5014705;28;20290;-80
2023/10/09 09:59:55;;;;;;;15.97;5.30;;;;;;;21.42;88.20;100894.28;5013148;28;20259;-81
2023/10/09 10:02:30;;;;;;;17.37;5.57;;;;;;;21.42;87.25;100895.16;5006655;28;20203;-80
2023/10/09 10:04:57;;;;;;;9.23;4.80;;;;;;;21.57;87.58;100898.88;5015706;28;20187;-81
2023/10/09 10:07:25;;;;;;;11.73;4.90;;;;;;;21.55;87.77;100894.59;5008143;28;20192;-79
2023/10/09 10:09:54;;;;;;;15.60;4.93;;;;;;;21.78;87.42;100893.56;5015627;28;20215;-79
2023/10/09 10:12:48;;;;;;;13.13;4.97;;;;;;;21.90;87.49;100894.78;5022312;28;20295;-79
2023/10/09 10:15:16;;;;;;;9.10;3.90;;;;;;;22.00;87.49;100890.78;5021963;28;20793;-80
2023/10/09 10:17:58;;;;;;;15.80;5.40;;;;;;;21.65;86.63;100885.38;5020133;28;20184;-78
2023/10/09 10:22:50;;;;;;;12.63;5.03;;;;;;;21.69;87.01;100876.41;5015119;28;20703;-80
2023/10/09 10:25:41;;;;;;;12.50;4.67;;;;;;;21.83;86.00;100874.91;5021446;28;20190;-79
2023/10/09 10:28:38;;;;;;;10.77;4.30;;;;;;;21.84;85.46;100868.72;5020349;28;20274;-80
2023/10/09 10:31:07;;;;;;;11.13;3.80;;;;;;;21.77;85.93;100870.78;5033071;28;20218;-80
2023/10/09 10:33:58;;;;;;;11.83;4.40;;;;;;;21.80;86.17;100867.16;5014588;28;20228;-79
2023/10/09 10:36:26;;;;;;;19.77;5.27;;;;;;;21.81;86.66;100874.13;5017376;28;20542;-81
2023/10/09 10:39:04;;;;;;;8.83;3.83;;;;;;;22.31;84.48;100870.03;5017752;28;20195;-83
2023/10/09 10:41:35;;;;;;;14.07;4.80;;;;;;;22.47;83.34;100860.44;5014803;28;20208;-82
2023/10/09 10:44:33;;;;;;;13.03;4.70;;;;;;;22.68;82.29;100865.56;5022909;28;20642;-79
2023/10/09 10:46:52;;;;;;;10.30;4.03;;;;;;;23.02;81.32;100855.91;5015849;28;20189;-80
2023/10/09 10:49:21;;;;;;;13.77;5.00;;;;;;;23.08;81.28;100850.28;5017478;28;20188;-80
2023/10/09 10:51:49;;;;;;;11.47;4.30;;;;;;;23.39;80.70;100856.63;5013611;28;20210;-80
2023/10/09 10:56:59;;;;;;;9.90;4.47;;;;;;;23.45;77.86;100858.06;5013480;28;20188;-82
2023/10/09 10:59:33;;;;;;;10.27;4.70;;;;;;;23.26;77.83;100864.38;5016605;28;20199;-81
2023/10/09 11:04:38;;;;;;;14.87;4.13;;;;;;;22.92;78.64;100859.94;5013214;28;20192;-83
2023/10/09 11:07:12;;;;;;;12.73;4.20;;;;;;;22.74;79.37;100865.25;5017148;28;20194;-80
2023/10/09 11:15:37;;;;;;;8.87;3.97;;;;;;;22.34;80.80;100861.94;5018878;28;20183;-80
2023/10/09 11:18:07;;;;;;;8.33;3.80;;;;;;;22.26;81.14;100862.31;5022077;28;20187;-81
2023/10/09 11:20:38;;;;;;;9.93;3.83;;;;;;;22.19;81.41;100856.50;5021650;28;20267;-78
2023/10/09 11:23:14;;;;;;;12.33;4.60;;;;;;;22.04;81.46;100862.50;5016376;28;20921;-80
2023/10/09 11:25:52;;;;;;;9.43;4.07;;;;;;;22.03;81.28;100858.16;5021401;28;20179;-79
2023/10/09 11:28:29;;;;;;;10.53;4.47;;;;;;;22.05;81.04;100848.41;5013761;28;20180;-79
2023/10/09 11:31:05;;;;;;;12.40;4.20;;;;;;;22.11;79.75;100856.03;5014862;28;20212;-79
2023/10/09 11:33:51;;;;;;;12.30;4.10;;;;;;;22.25;79.52;100849.22;5011940;28;20235;-79
2023/10/09 11:36:32;;;;;;;13.20;4.50;;;;;;;22.36;78.66;100833.72;5014805;28;20694;-80
2023/10/09 11:39:17;;;;;;;10.47;4.43;;;;;;;22.57;77.83;100836.25;5025878;28;20702;-80
2023/10/09 11:41:44;;;;;;;12.03;4.70;;;;;;;22.57;77.06;100828.34;5018146;28;20199;-82
2023/10/09 11:44:18;;;;;;;10.73;4.17;;;;;;;22.57;77.28;100823.06;5020677;28;20716;-81
2023/10/09 11:47:22;;;;;;;15.40;4.63;;;;;;;22.49;77.15;100826.09;5012146;28;20832;-79
2023/10/09 11:50:12;;;;;;;9.80;4.07;;;;;;;22.64;77.44;100813.88;5018544;28;20932;-84
2023/10/09 11:55:55;;;;;;;14.67;5.30;;;;;;;22.35;79.96;100800.38;5048202;28;20417;-79
2023/10/09 11:58:24;;;;;;;9.87;4.10;;;;;;;22.49;79.58;100786.53;5072245;28;20203;-79
2023/10/09 12:01:04;;;;;;;15.37;4.50;;;;;;;22.54;80.22;100779.22;5029527;28;20740;-80
2023/10/09 12:03:31;;;;;;;13.10;4.60;;;;;;;22.45;81.12;100784.97;5015542;28;20184;-82
2023/10/09 12:05:57;;;;;;;12.93;4.73;;;;;;;22.23;82.30;100780.75;5018726;28;20191;-82
2023/10/09 12:08:26;;;;;;;10.90;4.43;;;;;;;22.37;81.25;100778.28;5017522;28;20175;-79
2023/10/09 12:10:54;;;;;;;12.53;3.63;;;;;;;22.46;81.17;100779.59;5019681;28;20294;-81
2023/10/09 12:13:22;;;;;;;10.17;4.10;;;;;;;22.56;81.17;100779.16;5016958;28;20265;-82
2023/10/09 12:15:48;;;;;;;14.43;5.40;;;;;;;22.49;80.54;100773.34;5011258;28;20192;-83
2023/10/09 12:18:18;;;;;;;10.27;4.30;;;;;;;22.83;79.69;100782.13;5024165;28;20321;-80
2023/10/09 12:20:55;;;;;;;12.40;4.03;;;;;;;23.01;79.72;100776.78;5021774;28;20203;-82
2023/10/09 12:23:22;;;;;;;9.27;3.93;;;;;;;23.23;78.76;100777.38;5009609;28;20263;-81
2023/10/09 12:25:49;;;;;;;7.10;3.80;;;;;;;23.31;77.96;100776.09;5021598;28;20234;-80
2023/10/09 12:28:20;;;;;;;14.00;4.70;;;;;;;23.35;77.41;100762.66;5025070;28;20238;-82
2023/10/09 12:30:50;;;;;;;8.93;4.10;;;;;;;23.54;76.47;100774.81;5016481;28;20199;-83
2023/10/09 12:33:39;;;;;;;14.03;4.93;;;;;;;23.63;75.55;100763.75;5019392;28;20211;-81
2023/10/09 12:36:04;;;;;;;14.90;4.60;;;;;;;23.81;74.76;100764.50;5013413;28;20287;-81
2023/10/09 12:38:33;;;;;;;11.80;4.20;;;;;;;23.82;74.30;100757.44;5020452;28;20273;-81
2023/10/09 12:41:17;;;;;;;13.57;4.27;;;;;;;23.84;74.72;100753.75;5022531;28;20207;-81
2023/10/09 12:43:42;;;;;;;11.70;4.43;;;;;;;23.81;74.71;100750.44;5015169;28;20172;-82
2023/10/09 12:46:08;;;;;;;11.30;3.87;;;;;;;23.86;75.12;100745.72;5019182;28;20214;-82
2023/10/09 12:48:35;;;;;;;15.33;4.37;;;;;;;23.94;75.11;100743.50;5014989;28;20184;-83
2023/10/09 12:51:05;;;;;;;11.53;4.07;;;;;;;23.89;74.35;100741.13;5016392;28;20219;-83
2023/10/09 12:53:33;;;;;;;13.60;4.10;;;;;;;23.82;73.50;100739.78;5015839;28;20584;-78
2023/10/09 12:55:58;;;;;;;11.10;4.93;;;;;;;23.80;73.22;100743.47;5020926;28;20184;-82
2023/10/09 12:58:26;;;;;;;14.23;4.40;;;;;;;23.80;72.02;100748.75;5008214;28;20285;-80
2023/10/09 13:00:52;;;;;;;14.60;4.70;;;;;;;23.57;72.10;100738.56;5013308;28;20214;-82
2023/10/09 13:03:18;;;;;;;11.87;4.30;;;;;;;23.48;72.34;100736.41;5015836;28;20180;-81
2023/10/09 13:05:58;;;;;;;13.83;4.30;;;;;;;23.31;72.74;100728.56;5020977;28;20203;-81
2023/10/09 13:08:34;;;;;;;12.73;4.27;;;;;;;23.35;72.78;100723.06;5015891;28;20820;-81
2023/10/09 13:11:10;;;;;;;12.13;4.83;;;;;;;23.35;73.05;100717.78;5013622;28;20226;-83
2023/10/09 13:13:40;;;;;;;13.23;4.60;;;;;;;23.24;73.45;100726.28;5017290;28;20204;-85
2023/10/09 13:16:14;;;;;;;16.57;4.70;;;;;;;23.14;73.53;100723.25;5015089;28;20277;-82
2023/10/09 13:18:41;;;;;;;13.27;4.20;;;;;;;23.07;73.91;100731.59;5022461;28;20702;-83
2023/10/09 13:21:07;;;;;;;12.30;4.30;;;;;;;23.08;74.14;100731.50;5015435;28;20215;-80